Spring Glen, NY (12483)

12:07 PM EDT on August 25, 2016 (GMT -0400)
Woodridge | | Change Station

Elev 1135 ft 41.71 °N, 74.55 °W | Updated 10 seconds ago

Clear
Clear
79.0 °F
Feels Like 81 °F
N
2.0
Wind Variable Wind from SSW
Gusts 2.5 mph

Today
High -- | Low -- °F
--% Chance of Precip.
Yesterday
High -- | Low -- °F
Precip. -- in
Pressure 30.05 in
Visibility 10.0 miles
Clouds Clear
Heat Index 81 °F
Dew Point 69 °F
Humidity 71%
Rainfall 0.00 in
Snow Depth Not available.
6:17 AM 7:41 PM
Last Quarter, 44% visible
METAR KMGJ 251554Z AUTO 22010KT 10SM CLR 27/21 A3005 RMK AO2 SLP175 T02720211 TSNO
Pressure 30.05 in
Visibility 10.0 miles
Clouds Clear
Heat Index 81 °F
Dew Point 69 °F
Humidity 71%
Rainfall 0.00 in
Snow Depth Not available.
6:17 AM 7:41 PM
Last Quarter, 44% visible
METAR KMGJ 251554Z AUTO 22010KT 10SM CLR 27/21 A3005 RMK AO2 SLP175 T02720211 TSNO

10-Day Weather Forecast

Almanac

Astronomy

Aug. 25, 2016 Rise Set
Actual Time
Civil Twilight
Nautical Twilight
Astronomical Twilight
Moon
Length of Visible Light
Length of Day
Tomorrow will be .
, % of the Moon is Illuminated

Today's Extremes

State Highs State Lows

Community

WunderPhotos

Upload Photos

1,934,867 photos uploaded!

WunderBlog® & News

Nearby

Air Quality

  Air Quality AQ Index Pollutant
Not available.

Snow Depth

Station Depth Elevation

Earthquake Activity

City Distance Mag. Time & Date
Minimum magnitude displayed is 2.5.

Coastal Water Temperatures

Place Temperature

Stations

Nearby Weather Stations

Station Location Temp. Windchill Dew Point Humidity Wind Precip. Elev Updated Type
                   

Watches & Warnings

There are currently no watches in effect.